Time;durP1;ratioP1;P1;durP2;ratioP2;P2;SDS_P1;SDS_P2;PMS_P1;PMS_P2;Temp;Humidity;BMP_temperature;BMP_pressure;BME280_temperature;BME280_humidity;BME280_pressure;Samples;Min_cycle;Max_cycle;Signal;HPM_P1;HPM_P2
2023/10/07 07:39:50;;;;;;;5.83;4.30;;;;;;;5.24;100.00;97604.78;4943628;28;20122;-68
2023/10/07 07:42:16;;;;;;;5.07;4.03;;;;;;;5.37;100.00;97619.78;4955836;28;20572;-70
2023/10/07 07:44:55;;;;;;;4.10;3.73;;;;;;;5.32;100.00;97595.03;4954802;29;20027;-71
2023/10/07 07:47:22;;;;;;;7.77;5.37;;;;;;;5.33;100.00;97594.00;4955460;28;20071;-70
2023/10/07 07:49:48;;;;;;;6.53;5.83;;;;;;;5.05;100.00;97552.88;4955727;28;20402;-70
2023/10/07 07:52:15;;;;;;;7.40;6.00;;;;;;;5.31;100.00;97574.94;4955946;28;20410;-69
2023/10/07 07:54:42;;;;;;;6.37;5.57;;;;;;;5.40;100.00;97594.81;4954577;29;20039;-70
2023/10/07 07:57:08;;;;;;;7.13;6.17;;;;;;;4.94;100.00;97512.13;4954642;29;20278;-70
2023/10/07 07:59:33;;;;;;;6.97;5.37;;;;;;;5.35;100.00;97576.16;4955740;28;20556;-69
2023/10/07 08:02:17;;;;;;;7.50;6.47;;;;;;;5.45;100.00;97573.88;4955834;29;20039;-69
2023/10/07 08:04:47;;;;;;;7.97;7.13;;;;;;;5.40;100.00;97552.56;4955663;28;20054;-72
2023/10/07 08:09:55;;;;;;;8.30;6.20;;;;;;;5.44;100.00;97537.94;4956865;28;20322;-71
2023/10/07 08:12:28;;;;;;;7.63;6.37;;;;;;;5.54;100.00;97533.88;4953859;28;20122;-68
2023/10/07 08:15:21;;;;;;;10.87;6.10;;;;;;;5.64;100.00;97549.25;4936490;28;20036;-68
2023/10/07 08:17:50;;;;;;;9.17;6.80;;;;;;;4.66;100.00;97379.75;4935777;29;20050;-68
2023/10/07 08:20:16;;;;;;;;;;;;;;;5.78;100.00;97529.72;4919942;29;20044;-67
2023/10/07 08:22:51;;;;;;;10.17;6.57;;;;;;;5.59;100.00;97485.72;4935023;29;19941;-68
2023/10/07 08:25:37;;;;;;;5.93;5.33;;;;;;;6.00;100.00;97532.03;4936038;29;20043;-67
2023/10/07 08:30:47;;;;;;;9.63;6.33;;;;;;;5.92;100.00;97492.69;4936051;29;20055;-66
2023/10/07 08:33:15;;;;;;;9.40;5.30;;;;;;;6.13;100.00;97516.94;4935781;29;20411;-69
2023/10/07 08:35:43;;;;;;;7.40;5.60;;;;;;;6.04;100.00;97502.34;4935667;29;20036;-67
2023/10/07 08:38:19;;;;;;;;;;;;;;;6.09;100.00;97509.66;4936906;29;20043;-69
2023/10/07 08:41:07;;;;;;;7.37;5.53;;;;;;;6.07;100.00;97504.59;4934705;29;19962;-69
2023/10/07 08:43:43;;;;;;;6.65;5.10;;;;;;;5.97;100.00;97483.09;4937990;29;20144;-69
2023/10/07 08:46:19;;;;;;;5.33;4.83;;;;;;;6.05;100.00;97489.94;4935434;29;20075;-66
2023/10/07 08:48:50;;;;;;;6.43;4.63;;;;;;;5.65;100.00;97418.88;4934879;29;20046;-67
2023/10/07 08:51:24;;;;;;;6.37;5.07;;;;;;;6.08;100.00;97486.91;4935653;29;20040;-69
2023/10/07 08:54:09;;;;;;;6.93;6.17;;;;;;;6.05;100.00;97469.63;4935704;29;20047;-69
2023/10/07 08:56:37;;;;;;;6.77;5.67;;;;;;;6.02;100.00;97461.31;4936021;29;20051;-69
2023/10/07 08:59:12;;;;;;;7.78;5.75;;;;;;;5.94;100.00;97448.38;4943629;29;20043;-68
2023/10/07 09:01:42;;;;;;;9.20;5.83;;;;;;;5.85;100.00;97435.41;4957193;28;20150;-69
2023/10/07 09:04:08;;;;;;;6.40;5.47;;;;;;;6.07;100.00;97458.84;4956308;29;20628;-67
2023/10/07 09:06:37;;;;;;;8.73;5.43;;;;;;;6.06;100.00;97436.09;4956238;28;20055;-67
2023/10/07 09:09:08;;;;;;;;;;;;;;;6.29;100.00;97461.94;4954565;28;20375;-65
2023/10/07 09:11:37;;;;;;;6.20;5.57;;;;;;;6.17;100.00;97430.94;4954222;29;19922;-69
2023/10/07 09:14:07;;;;;;;9.93;6.10;;;;;;;6.33;100.00;97442.78;4953902;28;20101;-68
2023/10/07 09:16:34;;;;;;;6.03;5.03;;;;;;;6.43;100.00;97437.84;4954310;28;20394;-65
2023/10/07 09:19:08;;;;;;;9.37;5.33;;;;;;;6.49;100.00;97430.88;4954125;28;20379;-67
2023/10/07 09:21:34;;;;;;;6.97;4.70;;;;;;;6.67;100.00;97435.38;4938016;29;20083;-67
2023/10/07 09:24:00;;;;;;;5.30;4.17;;;;;;;6.68;100.00;97429.06;4954263;28;20541;-66
2023/10/07 09:26:37;;;;;;;7.70;4.80;;;;;;;6.79;100.00;97431.78;4952604;29;20034;-66
2023/10/07 09:29:21;;;;;;;5.10;4.20;;;;;;;6.78;100.00;97400.25;4952588;29;20035;-67
2023/10/07 09:32:04;;;;;;;4.83;3.83;;;;;;;6.91;100.00;97408.03;4953752;29;20050;-68
2023/10/07 09:34:42;;;;;;;6.77;3.70;;;;;;;6.62;100.00;97347.94;4953910;29;20125;-66
2023/10/07 09:37:13;;;;;;;7.40;4.45;;;;;;;6.94;100.00;97407.63;4954092;28;20482;-66
2023/10/07 09:39:45;;;;;;;5.77;4.60;;;;;;;6.73;100.00;97363.09;4954352;28;20402;-67
2023/10/07 09:42:56;;;;;;;6.37;4.10;;;;;;;6.89;100.00;97383.66;4954923;29;20054;-68
2023/10/07 09:47:37;;;;;;;6.33;3.80;;;;;;;6.98;100.00;97365.66;4953712;28;20144;-68
2023/10/07 09:50:25;;;;;;;6.77;3.97;;;;;;;7.01;100.00;97371.31;4954268;29;20096;-64
2023/10/07 09:53:30;;;;;;;8.23;3.90;;;;;;;7.11;100.00;97379.53;4940388;29;20081;-67
2023/10/07 09:56:29;;;;;;;4.73;3.63;;;;;;;7.14;100.00;97376.41;4957555;29;20043;-66
2023/10/07 09:59:15;;;;;;;4.23;3.43;;;;;;;7.23;100.00;97369.00;4957914;28;20154;-67
2023/10/07 10:02:31;;;;;;;5.23;3.70;;;;;;;7.27;100.00;97358.78;4957477;29;20066;-66
2023/10/07 10:05:25;;;;;;;3.80;3.30;;;;;;;6.99;100.00;97315.16;4958793;28;20130;-67
2023/10/07 10:08:29;;;;;;;3.67;3.07;;;;;;;7.26;100.00;97346.56;4958120;29;20043;-65
2023/10/07 10:11:08;;;;;;;3.40;3.10;;;;;;;7.21;100.00;97344.56;4956166;29;20039;-68
2023/10/07 10:16:16;;;;;;;5.50;3.00;;;;;;;7.07;100.00;97301.63;4957512;28;20039;-68
2023/10/07 10:18:51;;;;;;;4.03;3.63;;;;;;;7.38;100.00;97329.69;4955931;29;20035;-68
2023/10/07 10:21:22;;;;;;;4.00;3.60;;;;;;;7.50;100.00;97327.06;4957188;28;20050;-67
2023/10/07 10:23:51;;;;;;;7.47;3.77;;;;;;;7.62;100.00;97327.91;4957600;28;20039;-66
2023/10/07 10:26:21;;;;;;;4.13;3.73;;;;;;;7.61;100.00;97297.16;4957005;28;20450;-65
2023/10/07 10:29:03;;;;;;;5.23;3.40;;;;;;;7.74;100.00;97296.94;4939827;29;20039;-67
2023/10/07 10:31:37;;;;;;;10.50;4.10;;;;;;;7.73;100.00;97297.97;4957133;28;20443;-67
2023/10/07 10:34:08;;;;;;;4.43;3.67;;;;;;;7.80;100.00;97316.41;4956935;28;20409;-66
2023/10/07 10:36:43;;;;;;;5.73;4.07;;;;;;;7.31;100.00;97254.06;4956996;28;20058;-67
2023/10/07 10:39:33;;;;;;;5.47;4.23;;;;;;;7.67;100.00;97312.13;4956877;28;20063;-68
2023/10/07 10:42:02;;;;;;;4.73;4.00;;;;;;;7.64;100.00;97301.19;4955618;29;20510;-68
2023/10/07 10:44:38;;;;;;;7.13;4.27;;;;;;;7.56;100.00;97299.69;4957241;28;20035;-68
2023/10/07 10:47:04;;;;;;;4.30;3.83;;;;;;;7.53;100.00;97308.09;4957050;28;20059;-66
2023/10/07 10:49:30;;;;;;;5.93;4.47;;;;;;;7.52;100.00;97298.53;4955500;29;20121;-67
2023/10/07 10:51:59;;;;;;;5.70;4.23;;;;;;;7.14;100.00;97233.53;4956463;28;20042;-65
2023/10/07 10:54:25;;;;;;;5.87;4.03;;;;;;;7.60;100.00;97295.56;4957096;28;20490;-67
2023/10/07 10:56:57;;;;;;;9.33;4.63;;;;;;;7.55;100.00;97276.91;4955654;29;20027;-66
2023/10/07 10:59:43;;;;;;;6.40;4.37;;;;;;;7.72;100.00;97288.41;4957430;28;20075;-67
2023/10/07 11:02:17;;;;;;;6.67;5.33;;;;;;;7.68;100.00;97274.03;4959846;28;20086;-67
2023/10/07 11:04:55;;;;;;;6.03;5.27;;;;;;;7.83;100.00;97283.38;4960344;29;20450;-68
2023/10/07 11:07:25;;;;;;;5.82;5.10;;;;;;;7.80;100.00;97266.06;4960365;28;20039;-66
2023/10/07 11:09:52;;;;;;;6.50;4.57;;;;;;;7.94;100.00;97269.31;4955386;29;20039;-67
2023/10/07 11:12:19;;;;;;;8.07;4.63;;;;;;;8.00;100.00;97273.69;4955047;29;20074;-68
2023/10/07 11:14:48;;;;;;;6.03;4.93;;;;;;;7.97;100.00;97263.56;4956190;28;20043;-67
2023/10/07 11:17:15;;;;;;;5.03;4.53;;;;;;;7.81;100.00;97227.19;4956676;28;20737;-66
2023/10/07 11:19:44;;;;;;;4.00;3.63;;;;;;;7.85;100.00;97228.31;4957291;28;20057;-65
2023/10/07 11:22:20;;;;;;;12.00;4.55;;;;;;;8.00;100.00;97241.91;4955409;29;20031;-67
2023/10/07 11:24:50;;;;;;;6.03;3.80;;;;;;;8.02;100.00;97239.81;4955584;29;20126;-67
2023/10/07 11:27:18;;;;;;;6.20;3.77;;;;;;;7.23;100.00;97119.41;4956871;28;20429;-68
2023/10/07 11:29:44;;;;;;;7.97;4.50;;;;;;;7.86;100.00;97224.63;4956464;28;20042;-66
2023/10/07 11:32:12;;;;;;;5.93;4.00;;;;;;;8.01;100.00;97235.56;4958720;28;20113;-67
2023/10/07 11:34:40;;;;;;;7.00;4.70;;;;;;;7.94;100.00;97226.94;4958381;29;20047;-65
2023/10/07 11:37:13;;;;;;;11.03;5.50;;;;;;;7.82;100.00;97219.00;4962622;29;20037;-68
2023/10/07 11:39:45;;;;;;;5.37;4.43;;;;;;;7.85;100.00;97236.28;4963184;28;20051;-66
2023/10/07 11:42:14;;;;;;;7.27;5.20;;;;;;;7.55;100.00;97186.88;4958799;28;20050;-66
2023/10/07 11:44:41;;;;;;;10.40;4.68;;;;;;;7.60;100.00;97179.03;4939333;29;20070;-68
2023/10/07 11:47:09;;;;;;;5.67;5.03;;;;;;;7.86;100.00;97208.75;4956276;28;20043;-67
2023/10/07 11:49:35;;;;;;;8.03;5.17;;;;;;;7.75;100.00;97184.66;4956198;28;20031;-66
2023/10/07 11:52:04;;;;;;;7.20;5.47;;;;;;;8.05;100.00;97220.81;4956980;29;20035;-68
2023/10/07 11:54:35;;;;;;;10.53;6.40;;;;;;;8.13;100.00;97214.34;4939702;29;20043;-69
2023/10/07 11:57:04;;;;;;;8.30;6.30;;;;;;;8.04;100.00;97201.44;4956525;28;20046;-66
2023/10/07 11:59:34;;;;;;;10.10;7.03;;;;;;;8.06;100.00;97211.81;4955792;28;20043;-68
2023/10/07 12:02:09;;;;;;;8.30;7.40;;;;;;;8.11;100.00;97214.59;4955247;28;20410;-66
2023/10/07 12:04:39;;;;;;;11.60;8.10;;;;;;;8.21;100.00;97206.03;4955314;28;20408;-68
2023/10/07 12:07:08;;;;;;;10.17;7.67;;;;;;;8.22;100.00;97205.81;4953861;29;20093;-65
2023/10/07 12:09:37;;;;;;;15.90;9.20;;;;;;;8.14;100.00;97195.56;4955208;28;20163;-64
2023/10/07 12:12:17;;;;;;;12.97;7.87;;;;;;;8.05;100.00;97194.31;4955568;28;20035;-68
2023/10/07 12:14:43;;;;;;;11.40;7.53;;;;;;;7.99;100.00;97193.41;4954222;28;20455;-69
2023/10/07 12:17:09;;;;;;;8.87;7.57;;;;;;;8.01;100.00;97187.84;4954066;29;20053;-68
2023/10/07 12:19:36;;;;;;;12.13;7.13;;;;;;;8.07;100.00;97190.38;4954982;28;20065;-69
2023/10/07 12:22:06;;;;;;;8.50;7.70;;;;;;;8.01;100.00;97174.59;4953471;28;20066;-67
2023/10/07 12:24:35;;;;;;;11.50;8.87;;;;;;;7.98;100.00;97159.97;4938192;29;20083;-68
2023/10/07 12:27:02;;;;;;;10.23;8.93;;;;;;;8.02;100.00;97163.78;4954998;28;20035;-64
2023/10/07 12:29:27;;;;;;;10.73;8.27;;;;;;;8.20;100.00;97165.47;4953539;29;20094;-67
2023/10/07 12:31:54;;;;;;;10.90;8.97;;;;;;;8.43;100.00;97182.38;4955060;28;20494;-66
2023/10/07 12:34:20;;;;;;;11.23;7.97;;;;;;;8.57;100.00;97178.41;4954189;28;20047;-68
2023/10/07 12:36:52;;;;;;;11.63;8.83;;;;;;;8.56;100.00;97167.00;4954242;29;20057;-67
2023/10/07 12:39:22;;;;;;;10.83;7.43;;;;;;;8.52;100.00;97171.16;4955115;28;20446;-66
2023/10/07 12:41:48;;;;;;;8.30;6.93;;;;;;;8.48;100.00;97174.53;4953261;29;20039;-65
2023/10/07 12:44:14;;;;;;;10.43;7.50;;;;;;;8.24;100.00;97145.41;4954370;28;20031;-68
2023/10/07 12:46:43;;;;;;;8.83;6.40;;;;;;;8.44;100.00;97166.25;4937131;29;20149;-66
2023/10/07 12:49:10;;;;;;;7.53;6.80;;;;;;;8.53;100.00;97162.16;4954301;28;20043;-68
2023/10/07 12:51:41;;;;;;;6.67;5.97;;;;;;;8.53;100.00;97161.34;4956532;28;20029;-67
2023/10/07 12:54:11;;;;;;;7.00;5.90;;;;;;;8.54;100.00;97152.34;4955283;28;20043;-74
2023/10/07 12:56:43;;;;;;;7.27;6.13;;;;;;;8.60;100.00;97148.75;4959148;28;20035;-76
2023/10/07 12:59:18;;;;;;;8.80;5.93;;;;;;;8.63;100.00;97157.03;4943892;29;20043;-77
2023/10/07 13:01:56;;;;;;;8.03;6.30;;;;;;;8.63;100.00;97166.84;4954683;28;20055;-72
2023/10/07 13:04:26;;;;;;;9.80;7.03;;;;;;;8.53;100.00;97153.41;4954174;28;20039;-68
2023/10/07 13:07:00;;;;;;;8.47;7.13;;;;;;;8.29;100.00;97134.88;4954210;28;20066;-69
2023/10/07 13:09:30;;;;;;;9.93;7.10;;;;;;;8.44;100.00;97152.97;4951670;28;20134;-68
2023/10/07 13:11:58;;;;;;;8.00;6.33;;;;;;;8.38;100.00;97146.78;4953881;28;20043;-71
2023/10/07 13:14:28;;;;;;;8.80;7.63;;;;;;;8.35;100.00;97141.13;4946380;29;20110;-68
2023/10/07 13:16:57;;;;;;;9.47;6.93;;;;;;;8.33;100.00;97140.53;4935237;29;20055;-68
2023/10/07 13:19:27;;;;;;;7.47;6.77;;;;;;;8.21;100.00;97105.31;4953812;29;20099;-71
2023/10/07 13:21:55;;;;;;;9.13;7.47;;;;;;;8.38;100.00;97128.22;4952628;29;20031;-71
2023/10/07 13:24:22;;;;;;;9.35;7.55;;;;;;;8.11;100.00;97092.69;4953687;28;20442;-70
2023/10/07 13:26:49;;;;;;;8.93;8.03;;;;;;;8.29;100.00;97115.53;4944741;28;20047;-67
2023/10/07 13:29:15;;;;;;;11.67;8.10;;;;;;;8.45;100.00;97164.38;4953839;28;20074;-68
2023/10/07 13:31:40;;;;;;;6.17;5.30;;;;;;;8.46;100.00;97172.09;4953828;28;20113;-68
2023/10/07 13:34:10;;;;;;;4.13;3.60;;;;;;;8.37;100.00;97153.09;4948237;29;20031;-69
2023/10/07 13:36:42;;;;;;;6.03;5.40;;;;;;;8.51;100.00;97179.34;4933416;29;20027;-68
2023/10/07 13:39:20;;;;;;;8.57;5.33;;;;;;;8.51;100.00;97168.75;4934469;29;20063;-67
2023/10/07 13:41:47;;;;;;;4.18;3.03;;;;;;;8.55;100.00;97177.84;4935139;29;20051;-68
2023/10/07 13:44:17;;;;;;;9.87;3.00;;;;;;;8.42;100.00;97147.13;4939967;29;20062;-68
2023/10/07 13:46:44;;;;;;;6.13;2.90;;;;;;;8.51;100.00;97171.41;4952533;29;20070;-68
2023/10/07 13:49:14;;;;;;;1.70;1.30;;;;;;;8.54;100.00;97178.88;4935676;29;20044;-68
2023/10/07 13:51:44;;;;;;;1.50;1.37;;;;;;;7.83;100.00;97071.47;4905147;29;20511;-69
2023/10/07 13:57:18;;;;;;;3.40;1.40;;;;;;;8.31;100.00;97191.13;4926179;29;20064;-69
2023/10/07 13:59:44;;;;;;;1.30;1.00;;;;;;;8.16;100.00;97159.03;4936154;29;20047;-69
2023/10/07 14:02:13;;;;;;;1.23;0.87;;;;;;;8.26;100.00;97185.72;4934635;29;20122;-70
2023/10/07 14:04:39;;;;;;;1.63;1.20;;;;;;;8.11;100.00;97153.63;4934701;29;20495;-69
2023/10/07 14:07:06;;;;;;;1.40;1.30;;;;;;;8.08;100.00;97176.09;4934389;29;20047;-68
2023/10/07 14:09:32;;;;;;;1.20;1.10;;;;;;;7.88;100.00;97153.69;4939624;29;20035;-67
2023/10/07 14:12:00;;;;;;;1.40;1.20;;;;;;;7.93;100.00;97174.97;4946434;29;20067;-69
2023/10/07 14:14:25;;;;;;;1.20;1.07;;;;;;;7.96;100.00;97177.16;4952238;29;20050;-68
2023/10/07 14:17:00;;;;;;;2.90;1.20;;;;;;;7.90;100.00;97178.09;4953478;28;20039;-66
2023/10/07 14:19:26;;;;;;;1.90;1.10;;;;;;;7.79;100.00;97182.34;4952437;29;20035;-67
2023/10/07 14:21:52;;;;;;;1.63;1.47;;;;;;;7.76;100.00;97188.91;4951621;28;20032;-69
2023/10/07 14:24:20;;;;;;;2.00;1.40;;;;;;;7.69;100.00;97177.66;4934142;29;20036;-69
2023/10/07 14:26:48;;;;;;;1.20;1.10;;;;;;;7.61;100.00;97185.94;4949490;29;20114;-67
2023/10/07 14:29:14;;;;;;;2.38;1.20;;;;;;;7.31;100.00;97134.94;4934833;29;20074;-69
2023/10/07 14:31:44;;;;;;;1.17;1.00;;;;;;;7.56;100.00;97177.91;4935388;29;20052;-67
2023/10/07 14:34:11;;;;;;;1.43;1.30;;;;;;;7.46;100.00;97167.06;4934745;29;20179;-67
2023/10/07 14:36:44;;;;;;;1.63;1.47;;;;;;;7.45;100.00;97162.78;4940502;29;20131;-66
2023/10/07 14:39:15;;;;;;;1.33;1.23;;;;;;;7.47;100.00;97168.66;4937446;29;20059;-72
2023/10/07 14:41:41;;;;;;;1.00;0.90;;;;;;;7.50;100.00;97172.69;4939996;29;20043;-69
2023/10/07 14:44:08;;;;;;;2.50;1.77;;;;;;;7.36;100.00;97145.66;4938501;29;20074;-71
2023/10/07 14:46:33;;;;;;;1.33;1.00;;;;;;;7.43;100.00;97172.81;4938998;29;20506;-68
2023/10/07 14:48:59;;;;;;;1.17;1.07;;;;;;;7.33;100.00;97167.28;4940359;29;20039;-71
2023/10/07 14:51:28;;;;;;;1.07;0.93;;;;;;;6.94;100.00;97100.78;4937494;29;20067;-67
2023/10/07 14:53:53;;;;;;;1.75;1.23;;;;;;;6.86;100.00;97093.16;4936765;29;20047;-69
2023/10/07 14:56:21;;;;;;;1.60;1.10;;;;;;;7.14;100.00;97143.56;4936661;29;20462;-70
2023/10/07 14:58:49;;;;;;;2.88;1.95;;;;;;;7.03;100.00;97133.78;4937421;29;20032;-69
2023/10/07 15:01:20;;;;;;;1.47;1.00;;;;;;;7.09;100.00;97145.28;4941685;29;20047;-68
2023/10/07 15:03:50;;;;;;;1.30;1.20;;;;;;;7.11;100.00;97138.72;4942913;29;20491;-67
2023/10/07 15:06:16;;;;;;;3.43;1.40;;;;;;;7.11;100.00;97130.78;4959208;28;20039;-67
2023/10/07 15:08:45;;;;;;;2.97;1.73;;;;;;;6.98;100.00;97112.50;4944393;29;20050;-70
2023/10/07 15:11:15;;;;;;;;;;;;;;;7.14;100.00;97127.69;4938235;29;20040;-68
2023/10/07 15:13:42;;;;;;;2.70;1.50;;;;;;;7.02;100.00;97103.06;4940571;29;19918;-74
2023/10/07 15:16:13;;;;;;;1.40;1.30;;;;;;;6.95;100.00;97094.44;4921657;29;20471;-69
2023/10/07 15:18:44;;;;;;;2.30;1.20;;;;;;;6.88;100.00;97085.78;4937371;29;20043;-69
2023/10/07 15:21:11;;;;;;;1.77;1.27;;;;;;;7.02;100.00;97097.78;4938713;29;20554;-68
2023/10/07 15:23:46;;;;;;;1.77;1.67;;;;;;;7.03;100.00;97098.59;4939067;29;20051;-69
2023/10/07 15:26:16;;;;;;;1.63;1.10;;;;;;;7.09;100.00;97105.59;4939975;29;20031;-70
2023/10/07 15:28:43;;;;;;;1.60;1.17;;;;;;;7.10;100.00;97099.28;4936834;29;20031;-78
2023/10/07 15:31:11;;;;;;;1.60;1.30;;;;;;;7.06;100.00;97074.31;4952315;29;20050;-70
2023/10/07 15:34:07;;;;;;;1.55;1.45;;;;;;;7.04;100.00;97066.59;4937029;29;20078;-68
2023/10/07 15:36:38;;;;;;;1.63;1.37;;;;;;;7.03;100.00;97062.34;4943405;29;20044;-70
2023/10/07 15:39:08;;;;;;;2.27;1.20;;;;;;;7.01;100.00;97058.31;4944856;29;20066;-68
2023/10/07 15:41:33;;;;;;;1.93;1.40;;;;;;;6.90;100.00;97028.16;4941853;29;20095;-70
2023/10/07 15:43:59;;;;;;;1.50;1.40;;;;;;;6.88;100.00;97017.03;4937470;29;20066;-69
2023/10/07 15:46:25;;;;;;;1.60;1.50;;;;;;;7.09;100.00;97044.75;4936720;29;20039;-70
2023/10/07 15:48:52;;;;;;;2.43;1.70;;;;;;;7.16;100.00;97029.53;4919837;29;20048;-70
2023/10/07 15:51:17;;;;;;;2.07;1.87;;;;;;;7.24;100.00;97042.44;4935741;29;20495;-70
2023/10/07 15:53:44;;;;;;;2.50;2.30;;;;;;;7.38;100.00;97058.88;4920435;29;20052;-68
2023/10/07 15:56:12;;;;;;;3.90;3.13;;;;;;;7.48;100.00;97064.38;4936582;29;20399;-68
2023/10/07 15:58:42;;;;;;;15.60;7.70;;;;;;;7.50;100.00;97078.19;4936370;29;20062;-69
2023/10/07 16:01:12;;;;;;;6.87;5.17;;;;;;;7.31;100.00;97063.50;4941131;29;20036;-67
2023/10/07 16:03:39;;;;;;;40.53;21.47;;;;;;;7.11;100.00;97040.81;4939869;29;20040;-69
2023/10/07 16:06:09;;;;;;;20.63;11.30;;;;;;;7.34;100.00;97097.44;4921051;29;20414;-68
2023/10/07 16:08:38;;;;;;;9.87;6.73;;;;;;;7.37;100.00;97104.91;4937796;29;20035;-71
2023/10/07 16:11:08;;;;;;;6.67;5.20;;;;;;;7.33;100.00;97117.00;4935987;29;20036;-68
2023/10/07 16:13:39;;;;;;;23.17;13.87;;;;;;;7.22;100.00;97104.56;4936062;29;20044;-71
2023/10/07 16:16:06;;;;;;;83.73;37.57;;;;;;;7.25;100.00;97127.94;4936482;29;20419;-70
2023/10/07 16:18:37;;;;;;;;;;;;;;;7.35;100.00;97144.84;4936886;29;20149;-67
2023/10/07 16:21:17;;;;;;;54.90;28.73;;;;;;;7.33;100.00;97151.41;4937005;29;20393;-69
2023/10/07 16:23:43;;;;;;;11.73;7.07;;;;;;;7.31;100.00;97153.47;4920432;29;20614;-71
2023/10/07 16:26:13;;;;;;;7.57;5.47;;;;;;;7.30;100.00;97163.25;4936861;29;20399;-68
2023/10/07 16:28:40;;;;;;;39.73;22.23;;;;;;;7.34;100.00;97187.44;4935751;29;20118;-68
2023/10/07 16:31:07;;;;;;;23.87;14.07;;;;;;;6.81;100.00;97122.94;4937668;29;20044;-69
2023/10/07 16:33:33;;;;;;;14.47;10.03;;;;;;;7.14;100.00;97185.09;4937933;29;20035;-66
2023/10/07 16:36:04;;;;;;;11.83;7.83;;;;;;;7.07;100.00;97179.91;4935816;29;20042;-67
2023/10/07 16:38:37;;;;;;;8.07;6.40;;;;;;;7.16;100.00;97212.13;4938895;29;20036;-69
2023/10/07 16:41:06;;;;;;;16.37;11.93;;;;;;;7.13;100.00;97231.09;4936704;29;20138;-68
2023/10/07 16:43:35;;;;;;;10.43;7.77;;;;;;;7.04;100.00;97217.41;4936241;29;20039;-68
2023/10/07 16:46:06;;;;;;;29.40;19.63;;;;;;;7.03;100.00;97225.56;4934859;29;20043;-67
2023/10/07 16:48:34;;;;;;;11.50;8.40;;;;;;;6.96;100.00;97233.59;4936135;29;20069;-67
2023/10/07 16:51:04;;;;;;;24.40;16.20;;;;;;;6.95;100.00;97250.50;4941334;29;20071;-67
2023/10/07 16:53:37;;;;;;;8.57;6.90;;;;;;;6.89;100.00;97259.31;4939599;29;20171;-69
2023/10/07 16:56:06;;;;;;;10.17;7.70;;;;;;;6.72;100.00;97248.56;4935632;29;20643;-68
2023/10/07 16:58:33;;;;;;;5.27;4.63;;;;;;;6.73;100.00;97274.00;4935445;29;20699;-71
2023/10/07 17:01:00;;;;;;;15.80;9.30;;;;;;;6.63;100.00;97267.59;4936758;29;20032;-69
2023/10/07 17:03:27;;;;;;;25.77;14.87;;;;;;;6.68;100.00;97281.78;4934306;29;20048;-69
2023/10/07 17:05:53;;;;;;;25.60;15.60;;;;;;;6.38;100.00;97241.28;4934581;29;20043;-68
2023/10/07 17:08:24;;;;;;;25.87;14.37;;;;;;;6.48;100.00;97276.72;4937231;29;20589;-69
2023/10/07 17:10:54;;;;;;;28.93;16.37;;;;;;;6.46;100.00;97277.97;4936373;29;20574;-71
2023/10/07 17:13:21;;;;;;;43.03;23.80;;;;;;;6.40;100.00;97279.69;4919898;29;20044;-66
2023/10/07 17:15:49;;;;;;;24.67;15.57;;;;;;;6.47;100.00;97285.69;4936969;29;20046;-68
2023/10/07 17:18:18;;;;;;;68.70;35.23;;;;;;;6.45;100.00;97285.09;4934857;29;20032;-69
2023/10/07 17:20:44;;;;;;;18.33;11.70;;;;;;;6.52;100.00;97314.09;4935548;29;20055;-68
2023/10/07 17:23:11;;;;;;;37.83;21.30;;;;;;;6.55;100.00;97323.44;4935148;29;20075;-68
2023/10/07 17:25:38;;;;;;;35.17;19.63;;;;;;;6.53;100.00;97321.00;4935401;29;20524;-70
2023/10/07 17:28:07;;;;;;;22.00;11.93;;;;;;;6.38;100.00;97310.00;4933682;29;20047;-68
2023/10/07 17:30:33;;;;;;;8.03;5.63;;;;;;;6.14;100.00;97298.47;4935043;29;20036;-69
2023/10/07 17:33:06;;;;;;;5.77;3.67;;;;;;;6.09;100.00;97314.16;4933580;29;20148;-69
2023/10/07 17:35:35;;;;;;;9.17;5.30;;;;;;;6.07;100.00;97330.22;4935574;29;20046;-67
2023/10/07 17:38:08;;;;;;;11.27;5.27;;;;;;;6.06;100.00;97335.69;4933358;29;20491;-68
2023/10/07 17:40:35;;;;;;;10.43;7.37;;;;;;;6.08;100.00;97355.63;4936933;29;20058;-66
2023/10/07 17:43:02;;;;;;;3.53;2.70;;;;;;;6.08;100.00;97379.41;4935469;29;20043;-69
2023/10/07 17:45:28;;;;;;;3.83;2.93;;;;;;;5.76;100.00;97333.69;4933676;29;20094;-68
2023/10/07 17:47:58;;;;;;;3.47;1.97;;;;;;;5.95;100.00;97370.75;4951652;29;20047;-80
2023/10/07 17:50:27;;;;;;;7.43;5.17;;;;;;;5.95;100.00;97376.84;4954242;29;20586;-71
2023/10/07 17:52:53;;;;;;;8.37;6.57;;;;;;;6.08;100.00;97391.78;4954277;29;20126;-69
2023/10/07 17:55:19;;;;;;;2.40;2.20;;;;;;;6.03;100.00;97404.81;4953909;28;20110;-69
2023/10/07 17:57:45;;;;;;;2.33;1.77;;;;;;;5.79;100.00;97393.22;4954093;29;20479;-68
2023/10/07 18:00:16;;;;;;;9.87;5.70;;;;;;;5.84;100.00;97422.41;4954379;28;20110;-70
2023/10/07 18:02:44;;;;;;;3.00;2.67;;;;;;;5.82;100.00;97440.31;4922039;29;20043;-69
2023/10/07 18:05:13;;;;;;;3.53;2.60;;;;;;;5.59;100.00;97436.38;4921055;29;20039;-69
2023/10/07 18:07:45;;;;;;;;;;;;;;;5.68;100.00;97455.41;4954928;28;20495;-71
2023/10/07 18:10:11;;;;;;;2.07;1.37;;;;;;;5.55;100.00;97451.03;4954841;28;20004;-69
2023/10/07 18:12:43;;;;;;;2.80;1.87;;;;;;;5.32;100.00;97420.88;4954466;28;20129;-68
2023/10/07 18:15:11;;;;;;;3.23;1.50;;;;;;;5.47;100.00;97479.47;4956133;29;20125;-69
2023/10/07 18:17:38;;;;;;;3.00;1.97;;;;;;;5.34;100.00;97468.97;4953384;29;20678;-68
2023/10/07 18:20:12;;;;;;;2.77;1.97;;;;;;;4.72;100.00;97378.13;4936505;29;20066;-69
2023/10/07 18:22:41;;;;;;;2.17;1.97;;;;;;;5.49;100.00;97514.38;4940662;29;20145;-68
2023/10/07 18:25:10;;;;;;;2.35;1.70;;;;;;;5.45;100.00;97510.53;4956000;29;20114;-68
2023/10/07 18:27:35;;;;;;;;;;;;;;;5.51;100.00;97518.44;4958649;29;20035;-68
2023/10/07 18:30:01;;;;;;;5.93;3.60;;;;;;;5.48;100.00;97525.94;4972208;28;20285;-68
2023/10/07 18:32:30;;;;;;;7.93;4.67;;;;;;;5.42;100.00;97545.25;4937383;29;20086;-69
2023/10/07 18:34:56;;;;;;;2.80;1.77;;;;;;;5.38;100.00;97544.06;4955394;29;20035;-67
2023/10/07 18:37:22;;;;;;;7.23;4.90;;;;;;;5.16;100.00;97546.94;4955428;29;20035;-70
2023/10/07 18:39:48;;;;;;;2.03;1.70;;;;;;;5.13;100.00;97563.19;4957007;28;20046;-69
2023/10/07 18:42:13;;;;;;;1.30;1.17;;;;;;;5.07;100.00;97577.22;4957227;28;20039;-70
2023/10/07 18:44:39;;;;;;;1.50;1.10;;;;;;;4.74;100.00;97573.78;4932934;29;20133;-69
2023/10/07 18:47:05;;;;;;;1.27;1.17;;;;;;;4.85;100.00;97616.16;4957242;29;20035;-70
2023/10/07 18:49:34;;;;;;;2.30;1.87;;;;;;;4.65;100.00;97587.19;4958565;29;20039;-71
2023/10/07 18:51:59;;;;;;;1.60;1.40;;;;;;;4.70;100.00;97630.56;4957785;28;20266;-72
2023/10/07 18:54:25;;;;;;;3.60;1.80;;;;;;;4.58;100.00;97628.50;4956344;29;20039;-71
2023/10/07 18:56:51;;;;;;;1.60;1.40;;;;;;;4.59;100.00;97656.50;4957157;29;20048;-71
2023/10/07 18:59:17;;;;;;;2.97;1.33;;;;;;;4.56;100.00;97667.44;4958643;28;20047;-70
2023/10/07 19:01:43;;;;;;;1.50;1.40;;;;;;;4.40;100.00;97667.81;4959446;29;20274;-70
2023/10/07 19:04:09;;;;;;;1.27;1.17;;;;;;;4.26;100.00;97669.59;4955399;29;20285;-71
2023/10/07 19:06:36;;;;;;;1.37;1.20;;;;;;;4.19;100.00;97689.00;4955335;29;20270;-70
2023/10/07 19:09:04;;;;;;;1.37;1.10;;;;;;;3.64;100.00;97717.06;4958043;28;20082;-69
2023/10/07 19:11:29;;;;;;;1.30;1.20;;;;;;;3.19;100.00;97721.81;4957737;28;20270;-70
2023/10/07 19:13:55;;;;;;;0.90;0.90;;;;;;;2.69;100.00;97736.72;4955939;29;20094;-69
2023/10/07 19:16:22;;;;;;;1.33;1.23;;;;;;;2.35;100.00;97749.66;4955980;28;20513;-70
2023/10/07 19:18:49;;;;;;;1.30;1.20;;;;;;;2.14;100.00;97753.84;4954997;29;20039;-70
2023/10/07 19:21:15;;;;;;;1.50;1.40;;;;;;;1.72;100.00;97716.91;4956769;28;20659;-68
2023/10/07 19:23:42;;;;;;;2.07;1.20;;;;;;;1.53;100.00;97698.13;4956455;28;20274;-69
2023/10/07 19:26:11;;;;;;;1.60;1.50;;;;;;;1.91;100.00;97776.75;4957074;28;20395;-69
2023/10/07 19:28:40;;;;;;;1.20;1.07;;;;;;;1.77;100.00;97772.31;4954752;28;20769;-69
2023/10/07 19:31:11;;;;;;;1.47;1.37;;;;;;;1.85;100.00;97795.84;4954853;29;20674;-68
2023/10/07 19:33:37;;;;;;;2.23;1.73;;;;;;;1.68;100.00;97789.09;4955362;29;20291;-68
2023/10/07 19:36:04;;;;;;;1.77;1.10;;;;;;;1.64;100.00;97795.72;4956430;28;20313;-67
2023/10/07 19:38:30;;;;;;;1.27;1.17;;;;;;;1.56;100.00;97796.59;4957372;28;20289;-70